createdAt,value
2023-03-30T00:01:17.266Z,75.46
2023-03-30T00:03:44.250Z,73.96
2023-03-30T00:06:09.082Z,73.11
2023-03-30T00:08:33.540Z,75.00
2023-03-30T00:11:02.658Z,72.11
2023-03-30T00:13:26.611Z,72.06
2023-03-30T00:15:51.625Z,72.77
2023-03-30T00:18:16.046Z,73.94
2023-03-30T00:20:43.234Z,72.29
2023-03-30T00:23:07.071Z,74.67
2023-03-30T00:25:30.852Z,72.79
2023-03-30T00:27:54.584Z,77.38
2023-03-30T00:30:20.267Z,77.50
2023-03-30T00:32:44.209Z,75.60
2023-03-30T00:35:09.224Z,76.40
2023-03-30T00:37:37.400Z,75.51
2023-03-30T00:40:01.291Z,79.20
2023-03-30T00:42:25.484Z,81.86
2023-03-30T00:45:26.584Z,80.47
2023-03-30T00:47:56.491Z,78.36
2023-03-30T00:50:23.913Z,79.11
2023-03-30T00:52:52.428Z,79.03
2023-03-30T00:55:16.405Z,79.42
2023-03-30T00:57:42.751Z,79.61
2023-03-30T01:00:11.700Z,79.92
2023-03-30T01:02:37.951Z,79.96
2023-03-30T01:05:02.416Z,80.20
2023-03-30T01:07:26.682Z,81.06
2023-03-30T01:09:53.857Z,80.71
2023-03-30T01:12:17.589Z,81.36
2023-03-30T01:14:43.191Z,80.76
2023-03-30T01:17:18.908Z,78.06
2023-03-30T01:20:49.334Z,77.69
2023-03-30T01:23:56.113Z,78.51
2023-03-30T01:26:41.707Z,80.30
2023-03-30T01:29:12.992Z,78.94
2023-03-30T01:32:10.090Z,81.69
2023-03-30T01:35:01.891Z,79.97
2023-03-30T01:37:51.660Z,82.35
2023-03-30T01:40:19.161Z,81.56
2023-03-30T01:42:51.794Z,83.61
2023-03-30T01:45:23.244Z,83.47
2023-03-30T01:47:55.524Z,82.94
2023-03-30T01:50:26.657Z,83.09
2023-03-30T01:52:58.608Z,83.32
2023-03-30T01:55:30.211Z,84.81
2023-03-30T01:57:59.379Z,83.20
2023-03-30T02:00:25.479Z,81.93
2023-03-30T02:02:55.007Z,81.46
2023-03-30T02:05:21.176Z,83.74
2023-03-30T02:07:48.292Z,81.47
2023-03-30T02:10:16.012Z,83.15
2023-03-30T02:12:41.869Z,83.23
2023-03-30T02:15:10.494Z,83.00
2023-03-30T02:17:36.001Z,84.24
2023-03-30T02:20:01.115Z,81.26
2023-03-30T02:22:26.365Z,80.97
2023-03-30T02:24:55.211Z,84.15
2023-03-30T02:27:19.642Z,86.34
2023-03-30T02:29:47.741Z,84.67
2023-03-30T02:32:22.224Z,83.62
2023-03-30T02:35:07.283Z,85.83
2023-03-30T02:37:59.284Z,85.74
2023-03-30T02:40:35.280Z,86.76
2023-03-30T02:43:24.646Z,85.73
2023-03-30T02:45:55.232Z,86.29
2023-03-30T02:48:35.071Z,85.16
2023-03-30T02:51:15.773Z,85.53
2023-03-30T02:54:08.047Z,84.79
2023-03-30T02:57:05.921Z,83.61
2023-03-30T02:59:37.302Z,83.07
2023-03-30T03:02:07.953Z,83.72
2023-03-30T03:04:34.257Z,87.24
2023-03-30T03:07:22.467Z,87.15
2023-03-30T03:09:46.601Z,86.24
2023-03-30T03:12:11.001Z,85.17
2023-03-30T03:14:35.147Z,86.62
2023-03-30T03:16:59.006Z,86.53
2023-03-30T03:19:31.262Z,84.77
2023-03-30T03:21:55.150Z,84.47
2023-03-30T03:24:19.157Z,83.43
2023-03-30T03:27:11.932Z,83.58
2023-03-30T03:29:51.121Z,82.55
2023-03-30T03:32:14.920Z,83.52
2023-03-30T03:34:44.727Z,84.64
2023-03-30T03:37:09.879Z,84.45
2023-03-30T03:39:33.806Z,83.79
2023-03-30T03:42:04.854Z,82.79
2023-03-30T03:44:28.966Z,83.53
2023-03-30T03:46:53.000Z,85.81
2023-03-30T03:49:16.919Z,85.16
2023-03-30T03:51:42.060Z,83.21
2023-03-30T03:54:05.989Z,84.69
2023-03-30T03:56:30.406Z,85.58
2023-03-30T03:58:54.239Z,85.51
2023-03-30T04:01:18.096Z,84.70
2023-03-30T04:03:42.207Z,83.48
2023-03-30T04:06:06.193Z,84.22
2023-03-30T04:08:31.727Z,83.87
2023-03-30T04:11:08.729Z,84.97
2023-03-30T04:14:01.884Z,83.57
2023-03-30T04:16:34.313Z,82.54
2023-03-30T04:19:19.810Z,82.21
2023-03-30T04:22:06.082Z,82.60
2023-03-30T04:25:05.646Z,82.10
2023-03-30T04:27:31.966Z,83.47
2023-03-30T04:30:20.726Z,82.47
2023-03-30T04:33:04.926Z,83.81
2023-03-30T04:35:51.765Z,82.93
2023-03-30T04:38:31.285Z,82.80
2023-03-30T04:40:56.861Z,82.14
2023-03-30T04:43:31.484Z,82.96
2023-03-30T04:46:24.206Z,83.19
2023-03-30T04:49:06.982Z,83.35
2023-03-30T04:51:49.170Z,81.33
2023-03-30T04:54:33.410Z,81.58
2023-03-30T04:57:24.932Z,82.49
2023-03-30T05:00:16.366Z,82.53
2023-03-30T05:03:15.399Z,82.87
2023-03-30T05:06:02.531Z,85.02
2023-03-30T05:08:41.981Z,84.27
2023-03-30T05:11:35.064Z,83.88
2023-03-30T05:14:18.871Z,85.41
2023-03-30T05:17:01.888Z,84.17
2023-03-30T05:19:35.094Z,83.27
2023-03-30T05:22:17.079Z,85.31
2023-03-30T05:25:08.522Z,84.73
2023-03-30T05:27:43.218Z,83.41
2023-03-30T05:30:34.348Z,83.90
2023-03-30T05:33:16.450Z,82.87
2023-03-30T05:35:58.606Z,82.18
2023-03-30T05:38:57.703Z,82.73
2023-03-30T05:41:53.860Z,83.42
2023-03-30T05:44:33.490Z,82.67
2023-03-30T05:47:18.919Z,81.86
2023-03-30T05:49:57.501Z,83.12
2023-03-30T05:52:26.346Z,82.19
2023-03-30T05:55:08.567Z,81.86
2023-03-30T05:57:59.243Z,83.66
2023-03-30T06:00:37.375Z,82.87
2023-03-30T06:03:12.206Z,83.85
2023-03-30T06:05:38.983Z,84.07
2023-03-30T06:08:04.622Z,83.65
2023-03-30T06:10:28.948Z,81.83
2023-03-30T06:12:53.259Z,82.13
2023-03-30T06:15:43.100Z,82.71
2023-03-30T06:18:13.268Z,81.69
2023-03-30T06:20:42.804Z,81.75
2023-03-30T06:23:06.937Z,82.58
2023-03-30T06:25:30.997Z,81.78
2023-03-30T06:27:55.082Z,82.17
2023-03-30T06:30:19.252Z,81.62
2023-03-30T06:32:46.585Z,80.42
2023-03-30T06:35:31.957Z,81.33
2023-03-30T06:37:57.026Z,81.71
2023-03-30T06:40:20.952Z,80.25
2023-03-30T06:42:47.155Z,81.31
2023-03-30T06:45:18.848Z,80.40
2023-03-30T06:47:44.130Z,82.23
2023-03-30T06:50:09.582Z,81.12
2023-03-30T06:52:55.969Z,80.27
2023-03-30T06:55:21.835Z,80.60
2023-03-30T06:57:45.666Z,79.33
2023-03-30T07:00:14.192Z,81.35
2023-03-30T07:02:57.500Z,79.16
2023-03-30T07:05:34.636Z,78.03
2023-03-30T07:08:11.252Z,79.09
2023-03-30T07:10:39.115Z,79.04
2023-03-30T07:13:04.932Z,80.18
2023-03-30T07:15:29.122Z,78.92
2023-03-30T07:17:53.628Z,78.39
2023-03-30T07:20:17.532Z,76.33
2023-03-30T07:23:07.878Z,76.52
2023-03-30T07:25:34.044Z,76.19
2023-03-30T07:28:06.656Z,75.29
2023-03-30T07:30:30.796Z,76.88
2023-03-30T07:33:00.351Z,75.26
2023-03-30T07:35:24.215Z,74.52
2023-03-30T07:37:50.813Z,73.44
2023-03-30T07:40:15.829Z,73.96
2023-03-30T07:42:44.165Z,72.20
2023-03-30T07:45:09.874Z,70.97
2023-03-30T07:47:33.808Z,70.13
2023-03-30T07:49:57.813Z,70.72
2023-03-30T07:52:21.991Z,70.14
2023-03-30T07:54:51.427Z,71.35
2023-03-30T07:57:19.682Z,71.59
2023-03-30T07:59:44.893Z,70.69
2023-03-30T08:02:23.401Z,68.20
2023-03-30T08:04:50.302Z,66.49
2023-03-30T08:07:20.569Z,68.48
2023-03-30T08:09:48.366Z,67.14
2023-03-30T08:12:12.079Z,65.63
2023-03-30T08:14:36.217Z,65.48
2023-03-30T08:17:01.331Z,63.40
2023-03-30T08:19:28.622Z,63.85
2023-03-30T08:21:52.566Z,61.58
2023-03-30T08:24:16.378Z,61.81
2023-03-30T08:26:40.095Z,61.83
2023-03-30T08:29:03.999Z,60.88
2023-03-30T08:31:27.801Z,60.43
2023-03-30T08:33:53.167Z,60.21
2023-03-30T08:36:17.043Z,58.43
2023-03-30T08:38:41.246Z,58.29
2023-03-30T08:42:11.906Z,57.29
2023-03-30T08:44:38.107Z,57.65
2023-03-30T08:47:04.407Z,57.05
2023-03-30T08:49:31.480Z,54.95
2023-03-30T08:51:57.076Z,54.42
2023-03-30T08:54:25.927Z,55.13
2023-03-30T08:57:01.380Z,54.23
2023-03-30T08:59:36.914Z,55.03
2023-03-30T09:02:03.350Z,54.10
2023-03-30T09:04:45.774Z,54.72
2023-03-30T09:07:17.166Z,54.46
2023-03-30T09:09:48.645Z,54.64
2023-03-30T09:12:21.530Z,55.42
2023-03-30T09:14:52.143Z,55.86
2023-03-30T09:17:21.272Z,55.49
2023-03-30T09:19:54.076Z,54.95
2023-03-30T09:22:19.905Z,55.62
2023-03-30T09:24:43.852Z,53.08
2023-03-30T09:27:17.134Z,53.08
2023-03-30T09:29:48.522Z,54.99
2023-03-30T09:32:16.501Z,53.64
2023-03-30T09:34:49.111Z,53.99
2023-03-30T09:37:16.338Z,52.22
2023-03-30T09:39:41.410Z,51.86
2023-03-30T09:42:29.294Z,53.77
2023-03-30T09:44:57.253Z,53.20
2023-03-30T09:47:27.053Z,53.32
2023-03-30T09:49:58.627Z,53.36
2023-03-30T09:52:24.553Z,51.92
2023-03-30T09:54:48.177Z,51.40
2023-03-30T09:57:28.419Z,53.07
2023-03-30T09:59:52.942Z,53.04
2023-03-30T10:02:22.284Z,54.08
2023-03-30T10:05:03.835Z,51.20
2023-03-30T10:07:30.884Z,52.11
2023-03-30T10:09:55.056Z,53.58
2023-03-30T10:12:19.068Z,52.99
2023-03-30T10:14:42.945Z,53.19
2023-03-30T10:17:07.985Z,51.79
2023-03-30T10:19:36.305Z,54.34
2023-03-30T10:22:04.590Z,53.14
2023-03-30T10:24:31.622Z,52.60
2023-03-30T10:26:58.926Z,52.66
2023-03-30T10:29:25.245Z,52.03
2023-03-30T10:31:51.710Z,52.16
2023-03-30T10:34:20.638Z,52.64
2023-03-30T10:36:45.349Z,53.83
2023-03-30T10:39:18.299Z,52.86
2023-03-30T10:41:43.761Z,52.79
2023-03-30T10:44:20.072Z,54.03
2023-03-30T10:46:44.295Z,53.21
2023-03-30T10:49:20.170Z,53.68
2023-03-30T10:52:01.597Z,55.35
2023-03-30T10:54:34.244Z,52.77
2023-03-30T10:57:04.383Z,52.79
2023-03-30T10:59:46.652Z,50.02
2023-03-30T11:02:45.088Z,50.77
2023-03-30T11:05:15.687Z,51.75
2023-03-30T11:07:45.570Z,51.76
2023-03-30T11:10:19.950Z,51.56
2023-03-30T11:12:49.457Z,50.63
2023-03-30T11:15:20.237Z,51.05
2023-03-30T11:17:58.976Z,51.22
2023-03-30T11:20:31.065Z,51.55
2023-03-30T11:23:02.870Z,51.16
2023-03-30T11:25:34.752Z,51.07
2023-03-30T11:28:08.736Z,51.75
2023-03-30T11:30:35.532Z,51.48
2023-03-30T11:33:07.013Z,51.58
2023-03-30T11:35:38.268Z,49.68
2023-03-30T11:38:10.501Z,50.48
2023-03-30T11:40:44.414Z,51.58
2023-03-30T11:43:11.021Z,50.18
2023-03-30T11:45:49.040Z,50.44
2023-03-30T11:48:50.770Z,50.31
2023-03-30T11:51:40.066Z,50.61
2023-03-30T11:54:31.860Z,49.67
2023-03-30T11:57:07.504Z,49.97
2023-03-30T11:59:42.901Z,50.18
2023-03-30T12:02:22.387Z,50.84
2023-03-30T12:04:51.404Z,49.95
2023-03-30T12:07:31.666Z,51.97
2023-03-30T12:09:58.110Z,50.74
2023-03-30T12:12:32.963Z,50.85
2023-03-30T12:15:11.088Z,48.80
2023-03-30T12:17:46.198Z,49.14
2023-03-30T12:20:29.334Z,48.86
2023-03-30T12:22:57.772Z,48.61
2023-03-30T12:25:31.949Z,49.08
2023-03-30T12:28:14.071Z,48.40
2023-03-30T12:30:48.579Z,49.64
2023-03-30T12:33:18.634Z,48.48
2023-03-30T12:36:00.710Z,47.53
2023-03-30T12:38:26.798Z,48.25
2023-03-30T12:41:03.903Z,47.86
2023-03-30T12:43:40.083Z,48.52
2023-03-30T12:46:14.223Z,50.33
2023-03-30T12:48:52.560Z,51.27
2023-03-30T12:51:32.047Z,50.30
2023-03-30T12:54:14.862Z,49.37
2023-03-30T12:56:47.665Z,47.81
2023-03-30T12:59:54.070Z,47.42
2023-03-30T13:02:40.573Z,49.11
2023-03-30T13:05:05.708Z,48.58
2023-03-30T13:07:36.377Z,48.97
2023-03-30T13:10:05.689Z,47.86
2023-03-30T13:12:38.032Z,48.28
2023-03-30T13:15:21.510Z,48.49
2023-03-30T13:18:00.835Z,49.02
2023-03-30T13:20:33.961Z,48.72
2023-03-30T13:23:07.874Z,48.79
2023-03-30T13:25:40.634Z,50.08
2023-03-30T13:28:37.315Z,49.78
2023-03-30T13:31:12.213Z,50.72
2023-03-30T13:33:40.072Z,51.21
2023-03-30T13:36:09.779Z,50.90
2023-03-30T13:39:05.710Z,50.82
2023-03-30T13:41:42.974Z,54.37
2023-03-30T13:44:24.875Z,62.01
2023-03-30T13:46:54.469Z,67.50
2023-03-30T13:49:35.286Z,70.94
2023-03-30T13:52:05.625Z,71.80
2023-03-30T13:54:34.460Z,73.66
2023-03-30T13:57:02.772Z,77.35
2023-03-30T13:59:31.222Z,76.42
2023-03-30T14:02:00.229Z,76.41
2023-03-30T14:04:24.712Z,75.23
2023-03-30T14:06:53.717Z,78.09
2023-03-30T14:09:23.696Z,80.04
2023-03-30T14:11:50.709Z,79.10
2023-03-30T14:14:23.214Z,79.20
2023-03-30T14:16:47.285Z,77.93
2023-03-30T14:19:22.314Z,79.13
2023-03-30T14:21:48.114Z,81.76
2023-03-30T14:24:16.796Z,81.23
2023-03-30T14:26:42.759Z,83.10
2023-03-30T14:29:24.711Z,81.05
2023-03-30T14:32:07.313Z,83.07
2023-03-30T14:34:36.189Z,82.57
2023-03-30T14:37:03.337Z,82.88
2023-03-30T14:39:27.445Z,83.14
2023-03-30T14:41:52.122Z,84.96
2023-03-30T14:44:17.598Z,85.00
2023-03-30T14:46:46.959Z,85.51
2023-03-30T14:49:19.904Z,85.70
2023-03-30T14:51:47.948Z,84.58
2023-03-30T14:54:19.014Z,85.37
2023-03-30T14:56:44.823Z,85.57
2023-03-30T14:59:09.748Z,84.74
2023-03-30T15:01:35.175Z,82.83
2023-03-30T15:04:00.696Z,84.12
2023-03-30T15:06:27.630Z,83.23
2023-03-30T15:08:53.046Z,86.57
2023-03-30T15:11:22.963Z,86.47
2023-03-30T15:13:51.966Z,86.02
2023-03-30T15:16:22.031Z,86.88
2023-03-30T15:18:46.206Z,87.66
2023-03-30T15:21:11.768Z,87.25
2023-03-30T15:23:40.944Z,84.38
2023-03-30T15:26:07.951Z,86.16
2023-03-30T15:28:37.982Z,89.07
2023-03-30T15:31:01.892Z,88.05
2023-03-30T15:33:32.649Z,88.32
2023-03-30T15:35:56.619Z,86.47
2023-03-30T15:38:30.593Z,87.14
2023-03-30T15:40:54.364Z,89.63
2023-03-30T15:43:23.284Z,87.65
2023-03-30T15:45:51.111Z,89.20
2023-03-30T15:48:16.789Z,87.54
2023-03-30T15:50:41.189Z,87.85
2023-03-30T15:53:06.103Z,86.45
2023-03-30T15:55:33.685Z,86.98
2023-03-30T15:57:57.651Z,87.77
2023-03-30T16:00:25.706Z,86.98
2023-03-30T16:02:57.437Z,88.53
2023-03-30T16:05:24.134Z,85.88
2023-03-30T16:07:48.362Z,85.04
2023-03-30T16:10:15.908Z,86.03
2023-03-30T16:12:43.104Z,86.06
2023-03-30T16:15:08.133Z,87.57
2023-03-30T16:17:34.399Z,87.31
2023-03-30T16:19:58.237Z,86.30
2023-03-30T16:22:21.945Z,86.07
2023-03-30T16:24:46.350Z,85.47
2023-03-30T16:27:12.004Z,84.75
2023-03-30T16:29:35.833Z,84.84
2023-03-30T16:32:00.043Z,84.72
2023-03-30T16:34:26.701Z,85.21
2023-03-30T16:36:51.046Z,83.44
2023-03-30T16:39:20.429Z,83.17
2023-03-30T16:41:44.822Z,85.45
2023-03-30T16:44:08.671Z,85.29
2023-03-30T16:46:32.366Z,83.08
2023-03-30T16:48:56.186Z,82.38
2023-03-30T16:51:21.624Z,84.32
2023-03-30T16:53:45.442Z,83.88
2023-03-30T16:56:17.888Z,83.20
2023-03-30T16:58:41.608Z,83.15
2023-03-30T17:01:05.776Z,81.96
2023-03-30T17:03:30.162Z,82.88
2023-03-30T17:05:53.867Z,82.46
2023-03-30T17:08:23.597Z,83.73
2023-03-30T17:10:47.225Z,83.53
2023-03-30T17:13:11.599Z,82.24
2023-03-30T17:15:38.667Z,82.11
2023-03-30T17:18:02.752Z,81.99
2023-03-30T17:20:31.834Z,81.43
2023-03-30T17:22:55.702Z,80.69
2023-03-30T17:25:23.526Z,80.89
2023-03-30T17:27:48.033Z,81.18
2023-03-30T17:30:21.236Z,80.83
2023-03-30T17:32:45.269Z,80.86
2023-03-30T17:35:10.538Z,80.49
2023-03-30T17:37:34.317Z,82.47
2023-03-30T17:39:58.049Z,82.70
2023-03-30T17:42:23.248Z,83.11
2023-03-30T17:44:46.933Z,82.93
2023-03-30T17:47:11.051Z,82.81
2023-03-30T17:49:34.764Z,83.10
2023-03-30T17:51:58.560Z,82.95
2023-03-30T17:54:24.700Z,84.23
2023-03-30T17:56:48.544Z,85.04
2023-03-30T17:59:14.173Z,84.30
2023-03-30T18:01:38.000Z,84.47
2023-03-30T18:04:04.262Z,84.20
2023-03-30T18:06:28.879Z,83.48
2023-03-30T18:08:52.967Z,83.84
2023-03-30T18:11:16.783Z,85.00
2023-03-30T18:13:40.485Z,86.31
2023-03-30T18:16:06.177Z,84.57
2023-03-30T18:18:31.976Z,86.45
2023-03-30T18:20:57.776Z,84.25
2023-03-30T18:23:22.461Z,86.90
2023-03-30T18:25:46.595Z,84.13
2023-03-30T18:28:18.317Z,83.27
2023-03-30T18:30:42.168Z,82.86
2023-03-30T18:33:08.089Z,85.45
2023-03-30T18:35:35.880Z,84.32
2023-03-30T18:38:00.720Z,86.59
2023-03-30T18:40:32.137Z,84.98
2023-03-30T18:42:56.926Z,88.57
2023-03-30T18:45:23.613Z,89.23
2023-03-30T18:47:47.429Z,89.24
2023-03-30T18:50:18.040Z,87.63
2023-03-30T18:52:42.011Z,88.08
2023-03-30T18:55:07.140Z,89.29
2023-03-30T18:57:30.909Z,89.34
2023-03-30T18:59:54.599Z,90.02
2023-03-30T19:02:18.406Z,91.16
2023-03-30T19:04:42.247Z,91.73
2023-03-30T19:07:07.473Z,92.69
2023-03-30T19:09:42.472Z,91.57
2023-03-30T19:12:07.745Z,91.59
2023-03-30T19:14:31.358Z,91.04
2023-03-30T19:16:55.099Z,93.09
2023-03-30T19:19:19.020Z,92.28
2023-03-30T19:21:43.261Z,91.32
2023-03-30T19:24:08.994Z,91.64
2023-03-30T19:26:32.981Z,92.25
2023-03-30T19:28:56.645Z,92.94
2023-03-30T19:31:20.455Z,92.51
2023-03-30T19:33:44.218Z,91.57
2023-03-30T19:36:08.920Z,92.24
2023-03-30T19:38:32.650Z,92.24
2023-03-30T19:41:01.557Z,93.32
2023-03-30T19:43:25.245Z,92.42
2023-03-30T19:45:52.363Z,91.88
2023-03-30T19:48:16.121Z,90.83
2023-03-30T19:50:40.788Z,90.22
2023-03-30T19:53:04.507Z,89.69
2023-03-30T19:55:29.418Z,88.34
2023-03-30T19:57:54.474Z,91.82
2023-03-30T20:00:19.872Z,92.54
2023-03-30T20:02:45.195Z,89.23
2023-03-30T20:05:13.077Z,91.80
2023-03-30T20:07:37.288Z,88.50
2023-03-30T20:10:01.173Z,87.00
2023-03-30T20:12:24.831Z,88.92
2023-03-30T20:14:50.067Z,88.56
2023-03-30T20:17:13.760Z,87.99
2023-03-30T20:19:40.648Z,88.41
2023-03-30T20:22:04.512Z,88.56
2023-03-30T20:24:28.330Z,88.88
2023-03-30T20:26:53.401Z,88.69
2023-03-30T20:29:17.163Z,88.62
2023-03-30T20:31:42.346Z,91.97
2023-03-30T20:34:06.538Z,91.33
2023-03-30T20:36:30.207Z,91.82
2023-03-30T20:38:56.054Z,91.57
2023-03-30T20:41:21.628Z,91.08
2023-03-30T20:43:56.530Z,91.16
2023-03-30T20:46:22.385Z,91.07
2023-03-30T20:48:54.057Z,90.48
2023-03-30T20:51:17.777Z,91.43
2023-03-30T20:53:42.466Z,88.54
2023-03-30T20:56:09.272Z,88.41
2023-03-30T20:58:33.106Z,89.49
2023-03-30T21:01:01.617Z,88.84
2023-03-30T21:03:29.255Z,89.41
2023-03-30T21:06:01.581Z,90.01
2023-03-30T21:08:25.516Z,87.90
2023-03-30T21:10:49.354Z,89.46
2023-03-30T21:13:15.080Z,88.42
2023-03-30T21:15:38.733Z,87.36
2023-03-30T21:18:02.502Z,88.20
2023-03-30T21:20:26.456Z,88.60
2023-03-30T21:22:51.654Z,90.77
2023-03-30T21:25:15.383Z,90.36
2023-03-30T21:27:39.149Z,90.27
2023-03-30T21:30:02.776Z,89.79
2023-03-30T21:32:28.686Z,89.86
2023-03-30T21:34:53.782Z,89.78
2023-03-30T21:37:17.558Z,89.88
2023-03-30T21:39:44.199Z,90.72
2023-03-30T21:42:08.168Z,91.83
2023-03-30T21:44:34.896Z,92.63
2023-03-30T21:46:58.667Z,92.14
2023-03-30T21:49:22.534Z,95.40
2023-03-30T21:51:46.971Z,94.53
2023-03-30T21:54:10.991Z,94.73
2023-03-30T21:56:36.629Z,92.34
2023-03-30T21:59:00.731Z,93.04
2023-03-30T22:01:25.240Z,92.31
2023-03-30T22:03:49.235Z,92.88
2023-03-30T22:06:16.284Z,92.67
2023-03-30T22:08:40.579Z,92.92
2023-03-30T22:11:08.646Z,92.96
2023-03-30T22:13:34.102Z,92.59
2023-03-30T22:15:59.024Z,93.08
2023-03-30T22:18:22.934Z,93.04
2023-03-30T22:20:47.416Z,92.25
2023-03-30T22:23:11.226Z,92.82
2023-03-30T22:25:35.003Z,91.32
2023-03-30T22:28:01.228Z,92.23
2023-03-30T22:30:26.443Z,91.91
2023-03-30T22:32:50.217Z,91.82
2023-03-30T22:35:14.023Z,91.71
2023-03-30T22:37:38.071Z,92.34
2023-03-30T22:40:01.827Z,91.42
2023-03-30T22:42:26.022Z,91.59
2023-03-30T22:44:50.369Z,92.85
2023-03-30T22:47:15.645Z,91.06
2023-03-30T22:49:40.093Z,92.20
2023-03-30T22:52:04.808Z,92.23
2023-03-30T22:54:28.539Z,88.73
2023-03-30T22:56:52.271Z,89.80
2023-03-30T22:59:16.545Z,87.25
2023-03-30T23:01:40.362Z,91.01
2023-03-30T23:04:05.870Z,88.40
2023-03-30T23:06:29.604Z,89.42
2023-03-30T23:08:54.649Z,90.08
2023-03-30T23:11:21.612Z,91.21
2023-03-30T23:13:45.384Z,89.91
2023-03-30T23:16:10.920Z,91.01
2023-03-30T23:18:35.164Z,89.81
2023-03-30T23:21:06.251Z,90.33
2023-03-30T23:23:30.637Z,90.80
2023-03-30T23:25:54.501Z,90.67
2023-03-30T23:28:18.485Z,90.31
2023-03-30T23:30:42.323Z,91.57
2023-03-30T23:33:06.616Z,89.85
2023-03-30T23:35:30.386Z,90.48
2023-03-30T23:37:55.602Z,89.53
2023-03-30T23:40:19.508Z,87.93
2023-03-30T23:42:43.274Z,87.62
2023-03-30T23:45:08.913Z,88.40
2023-03-30T23:47:32.646Z,88.03
2023-03-30T23:49:56.361Z,90.46
2023-03-30T23:52:20.190Z,88.84
2023-03-30T23:54:45.413Z,86.93
2023-03-30T23:57:09.896Z,87.78
2023-03-30T23:59:33.691Z,88.95
